createdAt,value
2022-09-01T00:00:02.124Z,6.25
2022-09-01T00:02:29.764Z,6.38
2022-09-01T00:04:58.874Z,5.90
2022-09-01T00:07:30.385Z,6.82
2022-09-01T00:09:58.779Z,5.57
2022-09-01T00:12:26.547Z,6.50
2022-09-01T00:14:53.402Z,6.30
2022-09-01T00:17:20.034Z,6.10
2022-09-01T00:19:46.620Z,6.18
2022-09-01T00:22:13.208Z,6.25
2022-09-01T00:24:39.762Z,6.63
2022-09-01T00:27:06.356Z,5.75
2022-09-01T00:29:33.236Z,5.63
2022-09-01T00:31:59.923Z,5.82
2022-09-01T00:34:26.485Z,5.72
2022-09-01T00:36:53.071Z,5.70
2022-09-01T00:39:19.666Z,6.65
2022-09-01T00:41:47.904Z,5.85
2022-09-01T00:44:18.451Z,6.13
2022-09-01T00:46:51.018Z,5.90
2022-09-01T00:49:43.120Z,6.25
2022-09-01T00:52:35.319Z,6.13
2022-09-01T00:55:12.163Z,6.00
2022-09-01T00:57:40.117Z,6.13
2022-09-01T01:00:15.318Z,6.07
2022-09-01T01:02:47.034Z,6.38
2022-09-01T01:05:17.436Z,6.75
2022-09-01T01:07:47.693Z,6.13
2022-09-01T01:10:16.416Z,6.50
2022-09-01T01:12:43.921Z,6.10
2022-09-01T01:15:13.329Z,5.70
2022-09-01T01:17:40.368Z,5.60
2022-09-01T01:20:28.234Z,6.30
2022-09-01T01:23:10.815Z,5.70
2022-09-01T01:25:53.445Z,5.82
2022-09-01T01:28:31.981Z,5.85
2022-09-01T01:31:12.662Z,6.10
2022-09-01T01:33:42.890Z,5.72
2022-09-01T01:39:13.025Z,6.07
2022-09-01T01:41:43.831Z,6.85
2022-09-01T01:44:13.810Z,6.43
2022-09-01T01:46:47.854Z,6.75
2022-09-01T01:49:19.991Z,5.93
2022-09-01T01:51:49.275Z,7.28
2022-09-01T01:54:19.817Z,6.35
2022-09-01T01:56:47.135Z,6.38
2022-09-01T01:59:14.893Z,6.43
2022-09-01T02:01:42.903Z,6.82
2022-09-01T02:04:11.223Z,6.38
2022-09-01T02:06:42.113Z,6.30
2022-09-01T02:09:08.834Z,6.50
2022-09-01T02:11:37.953Z,6.68
2022-09-01T02:14:06.673Z,6.35
2022-09-01T02:16:34.698Z,6.82
2022-09-01T02:19:02.799Z,6.00
2022-09-01T02:21:29.911Z,6.32
2022-09-01T02:24:02.870Z,5.97
2022-09-01T02:26:38.660Z,6.07
2022-09-01T02:29:10.182Z,6.50
2022-09-01T02:31:40.320Z,6.38
2022-09-01T02:34:13.989Z,5.70
2022-09-01T02:36:48.011Z,6.20
2022-09-01T02:39:22.639Z,6.55
2022-09-01T02:41:52.302Z,5.72
2022-09-01T02:44:20.000Z,5.78
2022-09-01T02:46:46.897Z,6.55
2022-09-01T02:49:28.255Z,5.75
2022-09-01T02:52:01.379Z,5.68
2022-09-01T02:54:30.978Z,3.78
2022-09-01T02:56:57.920Z,4.38
2022-09-01T02:59:27.460Z,5.65
2022-09-01T03:01:54.413Z,5.55
2022-09-01T03:04:23.436Z,4.18
2022-09-01T03:06:54.995Z,4.07
2022-09-01T03:09:22.412Z,4.63
2022-09-01T03:11:53.533Z,4.03
2022-09-01T03:14:23.651Z,4.40
2022-09-01T03:16:50.251Z,4.60
2022-09-01T03:19:19.112Z,4.43
2022-09-01T03:21:48.007Z,6.47
2022-09-01T03:24:16.903Z,6.78
2022-09-01T03:26:45.188Z,5.15
2022-09-01T03:29:16.431Z,6.22
2022-09-01T03:31:43.191Z,5.75
2022-09-01T03:34:11.086Z,6.20
2022-09-01T03:36:37.786Z,6.05
2022-09-01T03:39:04.881Z,6.15
2022-09-01T03:41:31.978Z,5.45
2022-09-01T03:43:59.586Z,5.95
2022-09-01T03:46:27.320Z,5.50
2022-09-01T03:48:58.604Z,5.43
2022-09-01T03:51:26.266Z,5.65
2022-09-01T03:53:57.575Z,5.20
2022-09-01T03:56:28.283Z,4.25
2022-09-01T03:58:56.483Z,4.65
2022-09-01T04:01:27.178Z,4.22
2022-09-01T04:03:54.755Z,4.47
2022-09-01T04:06:24.283Z,4.57
2022-09-01T04:09:03.238Z,4.88
2022-09-01T04:11:30.811Z,4.57
2022-09-01T04:13:57.876Z,4.88
2022-09-01T04:16:49.926Z,4.32
2022-09-01T04:19:25.528Z,4.75
2022-09-01T04:22:00.852Z,4.70
2022-09-01T04:24:31.871Z,3.92
2022-09-01T04:27:02.192Z,4.47
2022-09-01T04:29:31.971Z,5.18
2022-09-01T04:32:03.937Z,5.00
2022-09-01T04:34:37.546Z,4.95
2022-09-01T04:37:18.221Z,5.03
2022-09-01T04:39:56.935Z,5.00
2022-09-01T04:42:29.773Z,4.38
2022-09-01T04:44:57.649Z,4.70
2022-09-01T04:47:35.918Z,4.47
2022-09-01T04:50:13.870Z,4.63
2022-09-01T04:52:42.185Z,4.70
2022-09-01T04:55:17.802Z,5.22
2022-09-01T04:57:49.810Z,4.53
2022-09-01T05:00:35.555Z,4.63
2022-09-01T05:03:04.858Z,4.63
2022-09-01T05:05:44.384Z,3.97
2022-09-01T05:08:23.859Z,5.32
2022-09-01T05:11:00.861Z,4.13
2022-09-01T05:13:30.080Z,5.00
2022-09-01T05:16:06.443Z,4.85
2022-09-01T05:18:34.134Z,4.78
2022-09-01T05:21:11.180Z,6.30
2022-09-01T05:23:40.564Z,4.65
2022-09-01T05:26:17.191Z,5.60
2022-09-01T05:28:45.454Z,6.28
2022-09-01T05:31:13.178Z,6.65
2022-09-01T05:33:46.175Z,6.68
2022-09-01T05:36:14.739Z,5.43
2022-09-01T05:38:42.540Z,5.68
2022-09-01T05:41:15.174Z,6.20
2022-09-01T05:43:48.240Z,5.72
2022-09-01T05:46:21.440Z,5.70
2022-09-01T05:48:50.886Z,5.32
2022-09-01T05:51:43.245Z,7.30
2022-09-01T05:54:10.819Z,6.35
2022-09-01T05:56:43.656Z,5.32
2022-09-01T05:59:24.483Z,5.32
2022-09-01T06:01:53.766Z,5.93
2022-09-01T06:04:23.147Z,5.55
2022-09-01T06:07:07.813Z,5.53
2022-09-01T06:09:40.870Z,5.32
2022-09-01T06:12:18.229Z,5.05
2022-09-01T06:14:47.601Z,5.35
2022-09-01T06:17:16.780Z,5.95
2022-09-01T06:19:44.389Z,6.30
2022-09-01T06:22:11.872Z,4.90
2022-09-01T06:24:44.888Z,4.57
2022-09-01T06:27:12.941Z,5.22
2022-09-01T06:29:40.945Z,4.88
2022-09-01T06:32:10.579Z,5.00
2022-09-01T06:34:43.792Z,5.30
2022-09-01T06:37:12.992Z,4.70
2022-09-01T06:39:40.326Z,5.40
2022-09-01T06:42:09.523Z,4.68
2022-09-01T06:44:40.619Z,5.07
2022-09-01T06:47:09.300Z,5.05
2022-09-01T06:49:36.776Z,5.47
2022-09-01T06:52:04.448Z,6.32
2022-09-01T06:54:34.389Z,5.25
2022-09-01T06:59:52.354Z,5.07
2022-09-01T07:02:24.544Z,5.05
2022-09-01T07:04:54.085Z,5.45
2022-09-01T07:10:24.712Z,5.35
2022-09-01T07:13:05.666Z,5.10
2022-09-01T07:16:32.045Z,5.75
2022-09-01T07:18:30.504Z,5.50
2022-09-01T07:24:07.649Z,5.07
2022-09-01T07:26:31.611Z,6.35
2022-09-01T07:29:02.033Z,5.57
2022-09-01T07:31:51.265Z,6.57
2022-09-01T07:34:38.630Z,7.22
2022-09-01T07:39:56.399Z,8.45
2022-09-01T07:45:28.850Z,7.03
2022-09-01T07:47:57.029Z,7.25
2022-09-01T07:50:38.699Z,7.63
2022-09-01T07:53:08.707Z,8.13
2022-09-01T07:55:35.396Z,7.57
2022-09-01T07:58:02.117Z,7.93
2022-09-01T08:00:34.824Z,8.10
2022-09-01T08:03:37.622Z,6.80
2022-09-01T08:06:12.972Z,7.25
2022-09-01T08:08:40.385Z,7.18
2022-09-01T08:11:08.192Z,7.40
2022-09-01T08:13:41.225Z,8.50
2022-09-01T08:16:16.863Z,7.30
2022-09-01T08:18:48.857Z,7.45
2022-09-01T08:21:22.217Z,7.30
2022-09-01T08:23:51.209Z,6.90
2022-09-01T08:26:19.803Z,7.18
2022-09-01T08:28:54.414Z,7.43
2022-09-01T08:31:23.330Z,10.45
2022-09-01T08:33:51.110Z,7.18
2022-09-01T08:36:23.491Z,7.30
2022-09-01T08:38:52.380Z,6.93
2022-09-01T08:41:41.129Z,7.05
2022-09-01T08:44:19.361Z,7.75
2022-09-01T08:46:46.491Z,8.02
2022-09-01T08:49:27.998Z,7.00
2022-09-01T08:52:15.523Z,6.65
2022-09-01T08:54:45.561Z,8.43
2022-09-01T08:57:34.687Z,7.10
2022-09-01T09:00:01.516Z,7.43
2022-09-01T09:02:31.093Z,7.03
2022-09-01T09:04:58.233Z,7.10
2022-09-01T09:07:30.107Z,7.20
2022-09-01T09:10:15.107Z,6.22
2022-09-01T09:13:08.527Z,6.53
2022-09-01T09:15:52.192Z,6.93
2022-09-01T09:18:39.384Z,7.78
2022-09-01T09:21:32.570Z,8.00
2022-09-01T09:24:53.057Z,6.75
2022-09-01T09:27:37.729Z,6.78
2022-09-01T09:30:30.028Z,6.05
2022-09-01T09:35:50.757Z,5.82
2022-09-01T09:38:33.126Z,6.55
2022-09-01T09:41:20.090Z,6.05
2022-09-01T09:44:09.189Z,7.15
2022-09-01T09:46:40.246Z,6.47
2022-09-01T09:49:34.535Z,7.25
2022-09-01T09:52:03.245Z,6.70
2022-09-01T09:54:32.462Z,6.53
2022-09-01T09:57:08.257Z,6.35
2022-09-01T10:00:00.645Z,6.28
2022-09-01T10:02:33.567Z,5.75
2022-09-01T10:05:23.040Z,6.22
2022-09-01T10:07:49.955Z,6.13
2022-09-01T10:10:39.723Z,10.55
2022-09-01T10:13:11.520Z,5.13
2022-09-01T10:15:40.294Z,5.68
2022-09-01T10:18:20.551Z,4.88
2022-09-01T10:21:30.993Z,5.50
2022-09-01T10:26:54.511Z,5.22
2022-09-01T10:30:12.605Z,5.45
2022-09-01T10:32:54.316Z,6.10
2022-09-01T10:35:26.968Z,5.20
2022-09-01T10:37:58.122Z,5.38
2022-09-01T10:40:33.467Z,4.97
2022-09-01T10:43:24.215Z,5.00
2022-09-01T10:45:57.674Z,5.10
2022-09-01T10:48:45.780Z,4.63
2022-09-01T10:51:18.402Z,5.20
2022-09-01T10:53:52.239Z,4.80
2022-09-01T10:56:43.713Z,4.00
2022-09-01T10:59:43.551Z,4.35
2022-09-01T11:02:26.756Z,5.03
2022-09-01T11:04:54.520Z,4.97
2022-09-01T11:07:33.459Z,4.80
2022-09-01T11:10:35.867Z,4.38
2022-09-01T11:13:55.606Z,4.90
2022-09-01T11:16:49.325Z,4.63
2022-09-01T11:19:37.672Z,4.50
2022-09-01T11:22:15.328Z,4.78
2022-09-01T11:24:42.340Z,4.10
2022-09-01T11:27:11.191Z,4.97
2022-09-01T11:30:09.316Z,4.53
2022-09-01T11:32:39.602Z,4.43
2022-09-01T11:35:18.320Z,4.70
2022-09-01T11:37:49.692Z,4.20
2022-09-01T11:40:32.588Z,4.30
2022-09-01T11:43:08.102Z,3.92
2022-09-01T11:45:58.086Z,4.10
2022-09-01T11:48:27.002Z,4.30
2022-09-01T11:51:00.767Z,3.75
2022-09-01T11:53:28.259Z,4.95
2022-09-01T11:55:57.278Z,4.35
2022-09-01T11:58:27.815Z,4.45
2022-09-01T12:00:56.527Z,4.30
2022-09-01T12:03:25.801Z,4.50
2022-09-01T12:06:05.070Z,4.57
2022-09-01T12:08:35.486Z,6.13
2022-09-01T12:11:09.835Z,5.03
2022-09-01T12:13:37.499Z,4.35
2022-09-01T12:16:17.837Z,3.97
2022-09-01T12:18:51.692Z,3.90
2022-09-01T12:21:45.499Z,4.18
2022-09-01T12:24:18.678Z,4.03
2022-09-01T12:26:46.777Z,5.22
2022-09-01T12:29:14.594Z,5.15
2022-09-01T12:31:43.581Z,5.25
2022-09-01T12:34:38.095Z,4.60
2022-09-01T12:37:24.457Z,4.60
2022-09-01T12:39:57.479Z,4.60
2022-09-01T12:42:41.578Z,4.65
2022-09-01T12:45:13.201Z,4.22
2022-09-01T12:47:48.182Z,4.47
2022-09-01T12:50:16.395Z,4.63
2022-09-01T12:52:54.726Z,4.53
2022-09-01T12:58:12.190Z,4.40
2022-09-01T13:01:17.218Z,4.93
2022-09-01T13:04:11.681Z,4.85
2022-09-01T13:06:44.886Z,5.38
2022-09-01T13:09:11.511Z,4.90
2022-09-01T13:14:25.670Z,4.45
2022-09-01T13:16:52.352Z,4.15
2022-09-01T13:19:27.442Z,4.63
2022-09-01T13:21:55.424Z,4.55
2022-09-01T13:24:25.776Z,4.65
2022-09-01T13:29:43.628Z,4.35
2022-09-01T13:32:19.169Z,4.53
2022-09-01T13:34:47.500Z,4.18
2022-09-01T13:37:14.084Z,4.45
2022-09-01T13:39:43.480Z,4.60
2022-09-01T13:42:10.475Z,4.20
2022-09-01T13:44:37.054Z,7.97
2022-09-01T13:50:08.899Z,6.95
2022-09-01T13:52:42.492Z,5.70
2022-09-01T13:55:13.146Z,7.40
2022-09-01T13:57:39.849Z,7.50
2022-09-01T14:00:11.053Z,5.97
2022-09-01T14:02:49.024Z,6.05
2022-09-01T14:05:17.452Z,6.75
2022-09-01T14:07:44.322Z,6.00
2022-09-01T14:10:19.698Z,4.72
2022-09-01T14:12:46.802Z,4.40
2022-09-01T14:15:17.827Z,4.38
2022-09-01T14:17:47.827Z,4.18
2022-09-01T14:20:18.931Z,4.22
2022-09-01T14:22:46.453Z,4.72
2022-09-01T14:25:13.684Z,4.18
2022-09-01T14:27:40.563Z,3.75
2022-09-01T14:30:14.629Z,3.80
2022-09-01T14:32:41.245Z,3.92
2022-09-01T14:35:08.593Z,4.00
2022-09-01T14:37:37.680Z,4.00
2022-09-01T14:40:05.376Z,4.20
2022-09-01T14:42:32.219Z,3.75
2022-09-01T14:44:58.772Z,3.40
2022-09-01T14:47:25.772Z,3.88
2022-09-01T14:49:53.819Z,3.72
2022-09-01T14:52:42.550Z,3.67
2022-09-01T14:55:13.167Z,3.78
2022-09-01T14:57:39.828Z,3.78
2022-09-01T15:00:12.433Z,3.72
2022-09-01T15:02:43.459Z,3.83
2022-09-01T15:05:12.321Z,3.45
2022-09-01T15:07:39.850Z,4.18
2022-09-01T15:10:09.031Z,3.67
2022-09-01T15:12:40.202Z,4.20
2022-09-01T15:15:09.110Z,4.30
2022-09-01T15:17:40.350Z,4.03
2022-09-01T15:20:26.970Z,4.03
2022-09-01T15:22:54.012Z,4.10
2022-09-01T15:25:20.682Z,3.72
2022-09-01T15:27:47.783Z,4.00
2022-09-01T15:30:15.821Z,3.97
2022-09-01T15:32:47.141Z,3.47
2022-09-01T15:35:17.356Z,4.10
2022-09-01T15:37:49.727Z,4.15
2022-09-01T15:40:17.272Z,4.10
2022-09-01T15:42:43.996Z,4.13
2022-09-01T15:45:14.964Z,4.10
2022-09-01T15:47:45.675Z,3.85
2022-09-01T15:50:21.719Z,4.07
2022-09-01T15:52:58.688Z,3.78
2022-09-01T15:55:31.765Z,4.20
2022-09-01T15:57:58.974Z,3.30
2022-09-01T16:00:26.776Z,3.72
2022-09-01T16:02:56.449Z,3.80
2022-09-01T16:05:24.516Z,3.90
2022-09-01T16:07:52.373Z,3.60
2022-09-01T16:10:19.270Z,3.75
2022-09-01T16:12:48.260Z,3.83
2022-09-01T16:15:17.257Z,3.90
2022-09-01T16:17:58.912Z,3.65
2022-09-01T16:20:53.927Z,3.53
2022-09-01T16:23:23.286Z,3.65
2022-09-01T16:25:50.388Z,3.80
2022-09-01T16:28:24.805Z,4.03
2022-09-01T16:30:53.823Z,4.35
2022-09-01T16:33:20.364Z,3.78
2022-09-01T16:36:17.643Z,4.15
2022-09-01T16:38:53.708Z,4.07
2022-09-01T16:41:30.328Z,3.83
2022-09-01T16:44:17.926Z,4.03
2022-09-01T16:47:05.394Z,4.20
2022-09-01T16:49:43.976Z,5.28
2022-09-01T16:52:29.520Z,3.95
2022-09-01T16:55:28.825Z,4.57
2022-09-01T16:58:01.332Z,14.95
2022-09-01T17:00:40.482Z,13.40
2022-09-01T17:03:19.668Z,15.00
2022-09-01T17:05:56.772Z,8.77
2022-09-01T17:08:34.964Z,4.68
2022-09-01T17:11:11.225Z,4.43
2022-09-01T17:13:49.867Z,4.82
2022-09-01T17:16:16.566Z,5.20
2022-09-01T17:18:57.030Z,4.13
2022-09-01T17:21:33.296Z,4.82
2022-09-01T17:24:12.201Z,3.90
2022-09-01T17:26:41.513Z,3.90
2022-09-01T17:29:23.253Z,4.15
2022-09-01T17:32:12.658Z,3.35
2022-09-01T17:35:28.539Z,3.42
2022-09-01T17:38:36.328Z,3.20
2022-09-01T17:41:23.249Z,3.60
2022-09-01T17:44:18.021Z,3.35
2022-09-01T17:47:01.328Z,4.50
2022-09-01T17:50:05.086Z,6.15
2022-09-01T17:52:43.066Z,3.72
2022-09-01T17:55:24.186Z,3.10
2022-09-01T17:57:58.893Z,3.45
2022-09-01T18:00:28.452Z,3.42
2022-09-01T18:03:27.045Z,3.28
2022-09-01T18:05:58.313Z,3.50
2022-09-01T18:08:34.035Z,3.35
2022-09-01T18:11:07.017Z,3.28
2022-09-01T18:13:52.401Z,3.90
2022-09-01T18:16:50.766Z,3.35
2022-09-01T18:19:22.947Z,3.10
2022-09-01T18:21:56.547Z,3.42
2022-09-01T18:24:33.500Z,3.65
2022-09-01T18:27:01.792Z,3.38
2022-09-01T18:29:31.351Z,3.42
2022-09-01T18:32:26.004Z,3.50
2022-09-01T18:35:11.889Z,3.67
2022-09-01T18:37:53.840Z,3.35
2022-09-01T18:40:29.897Z,3.67
2022-09-01T18:43:24.609Z,3.88
2022-09-01T18:46:39.599Z,4.00
2022-09-01T18:49:32.718Z,3.78
2022-09-01T18:52:09.161Z,3.13
2022-09-01T18:54:58.691Z,6.13
2022-09-01T18:57:35.431Z,3.28
2022-09-01T19:00:07.988Z,3.33
2022-09-01T19:02:51.613Z,3.60
2022-09-01T19:05:53.277Z,3.65
2022-09-01T19:08:52.120Z,4.18
2022-09-01T19:11:27.667Z,3.92
2022-09-01T19:14:03.368Z,4.28
2022-09-01T19:16:38.782Z,3.70
2022-09-01T19:19:40.596Z,3.58
2022-09-01T19:22:10.063Z,4.05
2022-09-01T19:24:44.838Z,3.90
2022-09-01T19:27:15.761Z,3.78
2022-09-01T19:29:56.115Z,3.95
2022-09-01T19:32:25.714Z,3.83
2022-09-01T19:35:27.080Z,4.30
2022-09-01T19:37:53.652Z,4.03
2022-09-01T19:40:27.968Z,3.85
2022-09-01T19:43:18.273Z,3.72
2022-09-01T19:46:12.714Z,4.13
2022-09-01T19:48:48.612Z,3.80
2022-09-01T19:51:38.831Z,3.75
2022-09-01T19:54:22.296Z,3.42
2022-09-01T19:57:02.554Z,3.70
2022-09-01T19:59:46.511Z,3.72
2022-09-01T20:02:26.726Z,3.60
2022-09-01T20:05:22.199Z,3.40
2022-09-01T20:07:57.064Z,3.50
2022-09-01T20:10:36.074Z,3.78
2022-09-01T20:13:05.501Z,4.00
2022-09-01T20:15:46.342Z,4.35
2022-09-01T20:18:32.492Z,4.22
2022-09-01T20:21:03.091Z,4.55
2022-09-01T20:23:45.895Z,4.40
2022-09-01T20:27:06.423Z,4.22
2022-09-01T20:29:59.291Z,4.10
2022-09-01T20:32:39.527Z,3.88
2022-09-01T20:35:14.909Z,4.28
2022-09-01T20:37:59.285Z,4.15
2022-09-01T20:40:32.315Z,3.95
2022-09-01T20:43:31.297Z,4.00
2022-09-01T20:45:58.272Z,3.67
2022-09-01T20:48:27.234Z,4.20
2022-09-01T20:51:18.681Z,4.00
2022-09-01T20:54:03.661Z,4.10
2022-09-01T20:57:03.800Z,3.90
2022-09-01T20:59:50.702Z,5.43
2022-09-01T21:02:26.397Z,4.00
2022-09-01T21:05:20.759Z,3.88
2022-09-01T21:08:09.994Z,4.10
2022-09-01T21:10:56.094Z,4.03
2022-09-01T21:13:49.871Z,3.75
2022-09-01T21:16:44.534Z,3.42
2022-09-01T21:19:38.981Z,4.00
2022-09-01T21:22:16.522Z,4.13
2022-09-01T21:24:46.749Z,4.93
2022-09-01T21:27:20.597Z,4.55
2022-09-01T21:30:10.149Z,4.25
2022-09-01T21:32:37.401Z,3.97
2022-09-01T21:35:06.251Z,4.32
2022-09-01T21:37:32.849Z,4.22
2022-09-01T21:39:59.552Z,4.13
2022-09-01T21:42:30.551Z,4.30
2022-09-01T21:44:58.516Z,3.83
2022-09-01T21:47:26.691Z,4.38
2022-09-01T21:49:53.347Z,4.32
2022-09-01T21:52:20.709Z,3.95
2022-09-01T21:54:51.025Z,4.00
2022-09-01T21:57:17.757Z,4.30
2022-09-01T21:59:44.309Z,3.78
2022-09-01T22:02:11.064Z,4.07
2022-09-01T22:04:38.976Z,4.03
2022-09-01T22:07:06.999Z,3.88
2022-09-01T22:09:33.594Z,4.10
2022-09-01T22:12:00.243Z,4.18
2022-09-01T22:14:27.905Z,3.80
2022-09-01T22:16:54.927Z,3.95
2022-09-01T22:19:21.574Z,4.40
2022-09-01T22:21:48.289Z,4.10
2022-09-01T22:24:19.163Z,3.75
2022-09-01T22:26:47.551Z,3.90
2022-09-01T22:29:14.463Z,4.20
2022-09-01T22:31:41.547Z,4.00
2022-09-01T22:34:08.279Z,4.30
2022-09-01T22:36:38.031Z,3.63
2022-09-01T22:39:06.917Z,4.13
2022-09-01T22:41:34.733Z,4.00
2022-09-01T22:44:02.923Z,3.95
2022-09-01T22:46:31.194Z,3.63
2022-09-01T22:48:59.191Z,4.15
2022-09-01T22:51:26.664Z,3.95
2022-09-01T22:53:56.403Z,4.20
2022-09-01T22:56:27.129Z,4.90
2022-09-01T22:58:55.823Z,4.30
2022-09-01T23:01:25.584Z,4.53
2022-09-01T23:03:59.495Z,5.05
2022-09-01T23:06:28.326Z,4.57
2022-09-01T23:08:57.168Z,4.38
2022-09-01T23:11:27.472Z,4.68
2022-09-01T23:13:57.597Z,4.35
2022-09-01T23:16:27.787Z,4.30
2022-09-01T23:18:55.558Z,4.15
2022-09-01T23:21:26.398Z,4.60
2022-09-01T23:23:58.847Z,4.47
2022-09-01T23:26:27.163Z,4.63
2022-09-01T23:28:56.442Z,4.20
2022-09-01T23:31:25.978Z,4.78
2022-09-01T23:33:56.241Z,4.15
2022-09-01T23:36:25.890Z,4.47
2022-09-01T23:38:53.185Z,4.40
2022-09-01T23:41:24.118Z,4.45
2022-09-01T23:43:53.382Z,4.68
2022-09-01T23:46:22.903Z,4.22
2022-09-01T23:48:49.527Z,4.75
2022-09-01T23:51:18.199Z,4.60
2022-09-01T23:53:46.848Z,4.55
2022-09-01T23:56:22.119Z,4.55
2022-09-01T23:58:49.036Z,4.32
